Accueil
METAR-TAF:

METAR-TAF

Aéroports :

Aéroport de Tours-Val de Loire

Tours, France

latitude: 47-27N, longitude: 000-43E, altitude: 108 m

Observation

Le bulletin a été fait il y a 9 minutes, à 03:00 UTC
Vent 6 kt de ouest
Température 15°C
Humidité 94%
Pression 1016 hPa
Visibilité 10 km ou plus
Nuages fragmentés à une hauteur de 4200 ft
Ciel couvert à une hauteur de 10000 ft

METAR: LFOT 020300Z AUTO 26006KT 9999 BKN042 OVC100 15/14 Q1016 NOSIG

Heure: 05:09 (03:09 UTC)

Prévision

Le bulletin a été fait il y a 4 heures et 9 minutes, à 23:00 UTC
Prévision valable du 02 à 00 UTC au 02 à 24 UTC
Vent 4 kt de ouest
Visibilité 10 km ou plus
pas de nuages en-dessous de 1500 mètres et pas de cumulonimbus.
Temporairement
du 02 à 12 UTC au 02 à 21 UTC
Nuages épars à une hauteur de 4000 ft, Cumulus congestus.
faibles averses de pluie

TAF: LFOT 012300Z 0200/0224 27004KT CAVOK TEMPO 0212/0221 -SHRA SCT040TCU

Observations et prévisions météorologiques de plus de 4000 aéroports (messages METAR et TAF).

Les stations disponibles sont représentées par des disques jaunes et rouges sur la carte.

Passer la souris dessus pour voir le nom de la station.

Cliquer dessus pour voir les observations et prévisions météorologiques.

Pour changer de carte: cliquez sur les boutons verts avec une croix noire pour zoomer, sur le bouton vert avec un tiret pour effectuer un zoom arrière, ou sur les flèches vertes pour les cartes adjacentes.


METAR-TAF: